sensor_id;sensor_type;location;lat;lon;timestamp;P1;durP1;ratioP1;P2;durP2;ratioP2
40198;SDS011;25906;43.536;26.068;2022-11-09T00:01:56;21.17;;;10.27;;
40198;SDS011;25906;43.536;26.068;2022-11-09T00:04:41;19.05;;;9.63;;
40198;SDS011;25906;43.536;26.068;2022-11-09T00:07:28;21.48;;;9.45;;
40198;SDS011;25906;43.536;26.068;2022-11-09T00:10:18;19.25;;;9.95;;
40198;SDS011;25906;43.536;26.068;2022-11-09T00:13:04;19.63;;;10.38;;
40198;SDS011;25906;43.536;26.068;2022-11-09T00:15:50;17.92;;;10.32;;
40198;SDS011;25906;43.536;26.068;2022-11-09T00:18:35;17.27;;;9.00;;
40198;SDS011;25906;43.536;26.068;2022-11-09T00:21:22;18.45;;;8.82;;
40198;SDS011;25906;43.536;26.068;2022-11-09T00:24:09;17.10;;;9.10;;
40198;SDS011;25906;43.536;26.068;2022-11-09T00:26:54;18.55;;;9.45;;
40198;SDS011;25906;43.536;26.068;2022-11-09T00:29:40;16.65;;;8.98;;
40198;SDS011;25906;43.536;26.068;2022-11-09T00:32:26;17.25;;;9.45;;
40198;SDS011;25906;43.536;26.068;2022-11-09T00:35:11;21.52;;;9.57;;
40198;SDS011;25906;43.536;26.068;2022-11-09T00:37:57;20.67;;;10.10;;
40198;SDS011;25906;43.536;26.068;2022-11-09T00:40:42;20.20;;;9.07;;
40198;SDS011;25906;43.536;26.068;2022-11-09T00:43:28;20.65;;;9.88;;
40198;SDS011;25906;43.536;26.068;2022-11-09T00:46:14;16.52;;;9.05;;
40198;SDS011;25906;43.536;26.068;2022-11-09T00:48:59;19.70;;;8.40;;
40198;SDS011;25906;43.536;26.068;2022-11-09T00:51:45;13.77;;;7.90;;
40198;SDS011;25906;43.536;26.068;2022-11-09T00:54:31;19.65;;;8.93;;
40198;SDS011;25906;43.536;26.068;2022-11-09T00:57:16;19.10;;;8.45;;
40198;SDS011;25906;43.536;26.068;2022-11-09T01:00:02;24.50;;;10.35;;
40198;SDS011;25906;43.536;26.068;2022-11-09T01:02:48;20.75;;;9.60;;
40198;SDS011;25906;43.536;26.068;2022-11-09T01:05:36;19.27;;;9.50;;
40198;SDS011;25906;43.536;26.068;2022-11-09T01:08:23;21.75;;;10.05;;
40198;SDS011;25906;43.536;26.068;2022-11-09T01:11:09;18.10;;;8.63;;
40198;SDS011;25906;43.536;26.068;2022-11-09T01:13:57;22.35;;;10.20;;
40198;SDS011;25906;43.536;26.068;2022-11-09T01:16:43;18.23;;;9.40;;
40198;SDS011;25906;43.536;26.068;2022-11-09T01:19:29;22.17;;;9.35;;
40198;SDS011;25906;43.536;26.068;2022-11-09T01:22:15;20.48;;;10.43;;
40198;SDS011;25906;43.536;26.068;2022-11-09T01:25:01;28.27;;;11.15;;
40198;SDS011;25906;43.536;26.068;2022-11-09T01:27:46;26.70;;;12.15;;
40198;SDS011;25906;43.536;26.068;2022-11-09T01:30:33;28.63;;;12.23;;
40198;SDS011;25906;43.536;26.068;2022-11-09T01:33:20;26.73;;;11.30;;
40198;SDS011;25906;43.536;26.068;2022-11-09T01:36:10;25.90;;;12.25;;
40198;SDS011;25906;43.536;26.068;2022-11-09T01:38:56;35.80;;;11.77;;
40198;SDS011;25906;43.536;26.068;2022-11-09T01:41:42;21.95;;;10.50;;
40198;SDS011;25906;43.536;26.068;2022-11-09T01:44:28;20.67;;;9.23;;
40198;SDS011;25906;43.536;26.068;2022-11-09T01:47:20;20.30;;;9.85;;
40198;SDS011;25906;43.536;26.068;2022-11-09T01:50:08;20.13;;;9.98;;
40198;SDS011;25906;43.536;26.068;2022-11-09T01:52:56;19.38;;;9.50;;
40198;SDS011;25906;43.536;26.068;2022-11-09T01:55:42;23.38;;;10.23;;
40198;SDS011;25906;43.536;26.068;2022-11-09T01:58:31;20.23;;;9.52;;
40198;SDS011;25906;43.536;26.068;2022-11-09T02:01:21;19.55;;;9.70;;
40198;SDS011;25906;43.536;26.068;2022-11-09T02:04:11;19.98;;;9.68;;
40198;SDS011;25906;43.536;26.068;2022-11-09T02:07:03;26.15;;;10.35;;
40198;SDS011;25906;43.536;26.068;2022-11-09T02:13:09;19.15;;;9.48;;
40198;SDS011;25906;43.536;26.068;2022-11-09T02:15:58;20.25;;;9.30;;
40198;SDS011;25906;43.536;26.068;2022-11-09T02:18:49;19.02;;;9.68;;
40198;SDS011;25906;43.536;26.068;2022-11-09T02:21:36;20.15;;;10.88;;
40198;SDS011;25906;43.536;26.068;2022-11-09T02:24:22;20.75;;;9.82;;
40198;SDS011;25906;43.536;26.068;2022-11-09T02:27:08;21.55;;;10.82;;
40198;SDS011;25906;43.536;26.068;2022-11-09T02:29:54;22.63;;;11.30;;
40198;SDS011;25906;43.536;26.068;2022-11-09T02:32:42;20.90;;;10.48;;
40198;SDS011;25906;43.536;26.068;2022-11-09T02:35:27;25.02;;;11.25;;
40198;SDS011;25906;43.536;26.068;2022-11-09T02:38:13;22.33;;;10.80;;
40198;SDS011;25906;43.536;26.068;2022-11-09T02:40:59;21.77;;;10.05;;
40198;SDS011;25906;43.536;26.068;2022-11-09T02:46:31;24.88;;;10.07;;
40198;SDS011;25906;43.536;26.068;2022-11-09T02:49:18;21.88;;;10.00;;
40198;SDS011;25906;43.536;26.068;2022-11-09T02:52:04;23.50;;;10.57;;
40198;SDS011;25906;43.536;26.068;2022-11-09T02:54:49;20.65;;;9.23;;
40198;SDS011;25906;43.536;26.068;2022-11-09T02:57:35;20.08;;;9.57;;
40198;SDS011;25906;43.536;26.068;2022-11-09T03:00:20;20.33;;;9.85;;
40198;SDS011;25906;43.536;26.068;2022-11-09T03:03:06;19.13;;;10.20;;
40198;SDS011;25906;43.536;26.068;2022-11-09T03:05:51;20.67;;;10.52;;
40198;SDS011;25906;43.536;26.068;2022-11-09T03:08:37;19.40;;;10.60;;
40198;SDS011;25906;43.536;26.068;2022-11-09T03:11:22;26.35;;;10.70;;
40198;SDS011;25906;43.536;26.068;2022-11-09T03:14:08;17.27;;;9.90;;
40198;SDS011;25906;43.536;26.068;2022-11-09T03:16:54;15.57;;;8.85;;
40198;SDS011;25906;43.536;26.068;2022-11-09T03:19:39;21.10;;;10.32;;
40198;SDS011;25906;43.536;26.068;2022-11-09T03:22:25;35.40;;;16.13;;
40198;SDS011;25906;43.536;26.068;2022-11-09T03:25:10;28.10;;;15.27;;
40198;SDS011;25906;43.536;26.068;2022-11-09T03:27:57;35.97;;;16.23;;
40198;SDS011;25906;43.536;26.068;2022-11-09T03:30:46;30.35;;;11.57;;
40198;SDS011;25906;43.536;26.068;2022-11-09T03:33:32;20.85;;;11.25;;
40198;SDS011;25906;43.536;26.068;2022-11-09T03:36:18;21.42;;;10.77;;
40198;SDS011;25906;43.536;26.068;2022-11-09T03:39:03;22.02;;;11.50;;
40198;SDS011;25906;43.536;26.068;2022-11-09T03:41:48;28.15;;;13.32;;
40198;SDS011;25906;43.536;26.068;2022-11-09T03:44:34;26.73;;;12.77;;
40198;SDS011;25906;43.536;26.068;2022-11-09T03:47:19;24.00;;;10.88;;
40198;SDS011;25906;43.536;26.068;2022-11-09T03:50:05;19.67;;;10.45;;
40198;SDS011;25906;43.536;26.068;2022-11-09T03:52:51;22.90;;;10.70;;
40198;SDS011;25906;43.536;26.068;2022-11-09T03:55:37;21.25;;;10.77;;
40198;SDS011;25906;43.536;26.068;2022-11-09T03:58:23;19.40;;;9.77;;
40198;SDS011;25906;43.536;26.068;2022-11-09T04:01:08;25.33;;;10.68;;
40198;SDS011;25906;43.536;26.068;2022-11-09T04:03:55;18.63;;;9.98;;
40198;SDS011;25906;43.536;26.068;2022-11-09T04:06:40;20.40;;;10.65;;
40198;SDS011;25906;43.536;26.068;2022-11-09T04:09:26;16.63;;;9.82;;
40198;SDS011;25906;43.536;26.068;2022-11-09T04:12:11;23.90;;;11.65;;
40198;SDS011;25906;43.536;26.068;2022-11-09T04:14:57;24.92;;;10.45;;
40198;SDS011;25906;43.536;26.068;2022-11-09T04:17:43;26.08;;;12.30;;
40198;SDS011;25906;43.536;26.068;2022-11-09T04:20:29;28.58;;;11.40;;
40198;SDS011;25906;43.536;26.068;2022-11-09T04:23:16;22.58;;;11.07;;
40198;SDS011;25906;43.536;26.068;2022-11-09T04:26:01;21.85;;;11.05;;
40198;SDS011;25906;43.536;26.068;2022-11-09T04:28:47;21.73;;;11.63;;
40198;SDS011;25906;43.536;26.068;2022-11-09T04:31:32;18.27;;;9.90;;
40198;SDS011;25906;43.536;26.068;2022-11-09T04:34:18;24.98;;;10.82;;
40198;SDS011;25906;43.536;26.068;2022-11-09T04:37:04;17.95;;;9.85;;
40198;SDS011;25906;43.536;26.068;2022-11-09T04:39:49;22.00;;;10.60;;
40198;SDS011;25906;43.536;26.068;2022-11-09T04:42:34;19.58;;;10.45;;
40198;SDS011;25906;43.536;26.068;2022-11-09T04:45:20;26.05;;;10.70;;
40198;SDS011;25906;43.536;26.068;2022-11-09T04:48:06;22.27;;;11.15;;
40198;SDS011;25906;43.536;26.068;2022-11-09T04:51:00;25.77;;;10.93;;
40198;SDS011;25906;43.536;26.068;2022-11-09T04:53:47;16.73;;;9.82;;
40198;SDS011;25906;43.536;26.068;2022-11-09T04:56:32;21.65;;;11.10;;
40198;SDS011;25906;43.536;26.068;2022-11-09T04:59:17;19.17;;;10.32;;
40198;SDS011;25906;43.536;26.068;2022-11-09T05:02:03;17.17;;;10.30;;
40198;SDS011;25906;43.536;26.068;2022-11-09T05:04:49;23.23;;;10.95;;
40198;SDS011;25906;43.536;26.068;2022-11-09T05:07:35;21.77;;;10.95;;
40198;SDS011;25906;43.536;26.068;2022-11-09T05:10:21;22.40;;;10.70;;
40198;SDS011;25906;43.536;26.068;2022-11-09T05:13:07;20.05;;;10.68;;
40198;SDS011;25906;43.536;26.068;2022-11-09T05:15:55;18.60;;;10.02;;
40198;SDS011;25906;43.536;26.068;2022-11-09T05:18:40;24.33;;;10.90;;
40198;SDS011;25906;43.536;26.068;2022-11-09T05:21:26;22.48;;;11.02;;
40198;SDS011;25906;43.536;26.068;2022-11-09T05:24:11;27.30;;;10.88;;
40198;SDS011;25906;43.536;26.068;2022-11-09T05:26:57;22.55;;;11.70;;
40198;SDS011;25906;43.536;26.068;2022-11-09T05:29:43;21.08;;;11.27;;
40198;SDS011;25906;43.536;26.068;2022-11-09T05:32:28;20.20;;;9.63;;
40198;SDS011;25906;43.536;26.068;2022-11-09T05:35:14;24.45;;;10.07;;
40198;SDS011;25906;43.536;26.068;2022-11-09T05:38:00;22.52;;;11.27;;
40198;SDS011;25906;43.536;26.068;2022-11-09T05:40:52;23.83;;;10.98;;
40198;SDS011;25906;43.536;26.068;2022-11-09T05:43:38;23.67;;;10.18;;
40198;SDS011;25906;43.536;26.068;2022-11-09T05:46:23;24.20;;;10.38;;
40198;SDS011;25906;43.536;26.068;2022-11-09T05:49:10;21.88;;;10.52;;
40198;SDS011;25906;43.536;26.068;2022-11-09T05:51:55;19.45;;;11.13;;
40198;SDS011;25906;43.536;26.068;2022-11-09T05:54:40;24.48;;;11.52;;
40198;SDS011;25906;43.536;26.068;2022-11-09T05:57:26;22.60;;;11.18;;
40198;SDS011;25906;43.536;26.068;2022-11-09T06:00:12;23.77;;;11.55;;
40198;SDS011;25906;43.536;26.068;2022-11-09T06:03:02;25.10;;;11.95;;
40198;SDS011;25906;43.536;26.068;2022-11-09T06:05:52;19.77;;;9.93;;
40198;SDS011;25906;43.536;26.068;2022-11-09T06:08:37;20.48;;;10.57;;
40198;SDS011;25906;43.536;26.068;2022-11-09T06:11:23;20.73;;;10.88;;
40198;SDS011;25906;43.536;26.068;2022-11-09T06:14:08;18.13;;;9.88;;
40198;SDS011;25906;43.536;26.068;2022-11-09T06:16:54;24.77;;;10.73;;
40198;SDS011;25906;43.536;26.068;2022-11-09T06:19:39;17.70;;;10.18;;
40198;SDS011;25906;43.536;26.068;2022-11-09T06:22:25;17.45;;;9.95;;
40198;SDS011;25906;43.536;26.068;2022-11-09T06:25:10;22.05;;;10.68;;
40198;SDS011;25906;43.536;26.068;2022-11-09T06:27:56;21.33;;;10.27;;
40198;SDS011;25906;43.536;26.068;2022-11-09T06:30:42;23.35;;;10.70;;
40198;SDS011;25906;43.536;26.068;2022-11-09T06:34:25;21.42;;;10.57;;
40198;SDS011;25906;43.536;26.068;2022-11-09T06:37:10;25.35;;;9.88;;
40198;SDS011;25906;43.536;26.068;2022-11-09T06:39:56;22.83;;;10.90;;
40198;SDS011;25906;43.536;26.068;2022-11-09T06:42:41;23.80;;;11.40;;
40198;SDS011;25906;43.536;26.068;2022-11-09T06:45:27;24.30;;;12.23;;
40198;SDS011;25906;43.536;26.068;2022-11-09T06:48:13;25.17;;;11.77;;
40198;SDS011;25906;43.536;26.068;2022-11-09T06:50:59;23.25;;;11.27;;
40198;SDS011;25906;43.536;26.068;2022-11-09T06:53:45;28.40;;;12.10;;
40198;SDS011;25906;43.536;26.068;2022-11-09T06:56:31;22.77;;;11.35;;
40198;SDS011;25906;43.536;26.068;2022-11-09T06:59:16;23.45;;;12.10;;
40198;SDS011;25906;43.536;26.068;2022-11-09T07:02:01;23.95;;;11.38;;
40198;SDS011;25906;43.536;26.068;2022-11-09T07:04:50;25.08;;;11.65;;
40198;SDS011;25906;43.536;26.068;2022-11-09T07:07:36;21.77;;;11.55;;
40198;SDS011;25906;43.536;26.068;2022-11-09T07:10:22;21.77;;;11.30;;
40198;SDS011;25906;43.536;26.068;2022-11-09T07:13:08;18.65;;;11.07;;
40198;SDS011;25906;43.536;26.068;2022-11-09T07:15:54;27.80;;;11.30;;
40198;SDS011;25906;43.536;26.068;2022-11-09T07:18:39;24.63;;;12.30;;
40198;SDS011;25906;43.536;26.068;2022-11-09T07:21:24;26.83;;;12.25;;
40198;SDS011;25906;43.536;26.068;2022-11-09T07:24:10;18.95;;;10.27;;
40198;SDS011;25906;43.536;26.068;2022-11-09T07:26:55;19.65;;;10.57;;
40198;SDS011;25906;43.536;26.068;2022-11-09T07:29:41;21.83;;;10.52;;
40198;SDS011;25906;43.536;26.068;2022-11-09T07:32:26;19.98;;;10.88;;
40198;SDS011;25906;43.536;26.068;2022-11-09T07:35:11;20.63;;;10.52;;
40198;SDS011;25906;43.536;26.068;2022-11-09T07:38:00;18.88;;;10.50;;
40198;SDS011;25906;43.536;26.068;2022-11-09T07:40:45;18.35;;;10.05;;
40198;SDS011;25906;43.536;26.068;2022-11-09T07:43:31;27.73;;;10.90;;
40198;SDS011;25906;43.536;26.068;2022-11-09T07:46:16;19.52;;;10.43;;
40198;SDS011;25906;43.536;26.068;2022-11-09T07:49:02;16.67;;;10.15;;
40198;SDS011;25906;43.536;26.068;2022-11-09T07:51:47;25.30;;;11.55;;
40198;SDS011;25906;43.536;26.068;2022-11-09T07:54:32;24.23;;;10.52;;
40198;SDS011;25906;43.536;26.068;2022-11-09T07:57:18;23.80;;;11.52;;
40198;SDS011;25906;43.536;26.068;2022-11-09T08:00:03;20.95;;;10.27;;
40198;SDS011;25906;43.536;26.068;2022-11-09T08:02:49;22.48;;;10.10;;
40198;SDS011;25906;43.536;26.068;2022-11-09T08:05:35;18.98;;;10.05;;
40198;SDS011;25906;43.536;26.068;2022-11-09T08:11:06;18.77;;;10.13;;
40198;SDS011;25906;43.536;26.068;2022-11-09T08:13:51;25.00;;;11.02;;
40198;SDS011;25906;43.536;26.068;2022-11-09T08:16:37;26.30;;;10.60;;
40198;SDS011;25906;43.536;26.068;2022-11-09T08:19:22;21.23;;;10.50;;
40198;SDS011;25906;43.536;26.068;2022-11-09T08:22:07;23.20;;;10.55;;
40198;SDS011;25906;43.536;26.068;2022-11-09T08:24:53;28.75;;;11.75;;
40198;SDS011;25906;43.536;26.068;2022-11-09T08:27:38;22.08;;;10.43;;
40198;SDS011;25906;43.536;26.068;2022-11-09T08:30:24;24.00;;;10.55;;
40198;SDS011;25906;43.536;26.068;2022-11-09T08:35:56;21.17;;;12.02;;
40198;SDS011;25906;43.536;26.068;2022-11-09T08:38:42;24.95;;;11.60;;
40198;SDS011;25906;43.536;26.068;2022-11-09T08:41:28;30.05;;;13.38;;
40198;SDS011;25906;43.536;26.068;2022-11-09T08:44:14;24.23;;;13.15;;
40198;SDS011;25906;43.536;26.068;2022-11-09T08:46:59;28.35;;;12.85;;
40198;SDS011;25906;43.536;26.068;2022-11-09T08:49:45;29.67;;;13.75;;
40198;SDS011;25906;43.536;26.068;2022-11-09T08:52:31;33.45;;;13.75;;
40198;SDS011;25906;43.536;26.068;2022-11-09T08:58:02;26.75;;;12.95;;
40198;SDS011;25906;43.536;26.068;2022-11-09T09:00:48;27.80;;;13.27;;
40198;SDS011;25906;43.536;26.068;2022-11-09T09:03:33;36.85;;;14.25;;
40198;SDS011;25906;43.536;26.068;2022-11-09T09:06:19;30.23;;;14.27;;
40198;SDS011;25906;43.536;26.068;2022-11-09T09:09:04;33.80;;;13.90;;
40198;SDS011;25906;43.536;26.068;2022-11-09T09:11:50;27.52;;;13.63;;
40198;SDS011;25906;43.536;26.068;2022-11-09T09:14:36;26.77;;;14.18;;
40198;SDS011;25906;43.536;26.068;2022-11-09T09:20:06;35.17;;;14.70;;
40198;SDS011;25906;43.536;26.068;2022-11-09T09:22:52;31.25;;;15.57;;
40198;SDS011;25906;43.536;26.068;2022-11-09T09:25:38;37.35;;;14.93;;
40198;SDS011;25906;43.536;26.068;2022-11-09T09:28:23;33.47;;;16.95;;
40198;SDS011;25906;43.536;26.068;2022-11-09T09:31:09;33.42;;;16.60;;
40198;SDS011;25906;43.536;26.068;2022-11-09T09:33:54;32.47;;;15.55;;
40198;SDS011;25906;43.536;26.068;2022-11-09T09:36:39;26.00;;;14.90;;
40198;SDS011;25906;43.536;26.068;2022-11-09T09:39:25;26.80;;;14.15;;
40198;SDS011;25906;43.536;26.068;2022-11-09T09:42:13;29.25;;;13.57;;
40198;SDS011;25906;43.536;26.068;2022-11-09T09:45:11;25.52;;;14.30;;
40198;SDS011;25906;43.536;26.068;2022-11-09T09:50:48;28.50;;;12.85;;
40198;SDS011;25906;43.536;26.068;2022-11-09T09:53:42;23.90;;;13.07;;
40198;SDS011;25906;43.536;26.068;2022-11-09T09:56:37;30.20;;;13.15;;
40198;SDS011;25906;43.536;26.068;2022-11-09T09:59:43;21.48;;;13.15;;
40198;SDS011;25906;43.536;26.068;2022-11-09T10:02:34;20.95;;;12.82;;
40198;SDS011;25906;43.536;26.068;2022-11-09T10:05:22;22.60;;;12.55;;
40198;SDS011;25906;43.536;26.068;2022-11-09T10:08:15;26.90;;;12.23;;
40198;SDS011;25906;43.536;26.068;2022-11-09T10:17:24;27.30;;;12.57;;
40198;SDS011;25906;43.536;26.068;2022-11-09T10:29:00;26.08;;;13.65;;
40198;SDS011;25906;43.536;26.068;2022-11-09T10:31:58;22.88;;;13.27;;
40198;SDS011;25906;43.536;26.068;2022-11-09T10:35:16;27.70;;;14.65;;
40198;SDS011;25906;43.536;26.068;2022-11-09T10:38:06;28.73;;;13.93;;
40198;SDS011;25906;43.536;26.068;2022-11-09T10:40:59;32.28;;;17.58;;
40198;SDS011;25906;43.536;26.068;2022-11-09T10:43:48;34.13;;;18.67;;
40198;SDS011;25906;43.536;26.068;2022-11-09T10:46:59;40.05;;;20.20;;
40198;SDS011;25906;43.536;26.068;2022-11-09T10:50:06;47.00;;;20.33;;
40198;SDS011;25906;43.536;26.068;2022-11-09T10:59:25;29.42;;;17.25;;
40198;SDS011;25906;43.536;26.068;2022-11-09T11:08:11;30.58;;;17.27;;
40198;SDS011;25906;43.536;26.068;2022-11-09T11:11:27;31.63;;;17.85;;
40198;SDS011;25906;43.536;26.068;2022-11-09T11:14:17;36.08;;;16.25;;
40198;SDS011;25906;43.536;26.068;2022-11-09T11:17:20;28.98;;;15.75;;
40198;SDS011;25906;43.536;26.068;2022-11-09T11:20:24;30.60;;;16.95;;
40198;SDS011;25906;43.536;26.068;2022-11-09T11:23:16;26.60;;;14.88;;
40198;SDS011;25906;43.536;26.068;2022-11-09T11:30:20;33.33;;;14.52;;
40198;SDS011;25906;43.536;26.068;2022-11-09T11:33:00;44.10;;;15.07;;
40198;SDS011;25906;43.536;26.068;2022-11-09T11:42:39;25.40;;;11.85;;
40198;SDS011;25906;43.536;26.068;2022-11-09T11:52:35;18.65;;;11.05;;
40198;SDS011;25906;43.536;26.068;2022-11-09T12:08:09;18.58;;;10.15;;
40198;SDS011;25906;43.536;26.068;2022-11-09T12:11:06;17.60;;;9.85;;
40198;SDS011;25906;43.536;26.068;2022-11-09T12:28:39;19.70;;;10.48;;
40198;SDS011;25906;43.536;26.068;2022-11-09T12:31:30;16.77;;;9.52;;
40198;SDS011;25906;43.536;26.068;2022-11-09T12:40:37;21.30;;;10.73;;
40198;SDS011;25906;43.536;26.068;2022-11-09T12:43:38;15.65;;;10.25;;
40198;SDS011;25906;43.536;26.068;2022-11-09T12:46:43;21.55;;;10.75;;
40198;SDS011;25906;43.536;26.068;2022-11-09T12:52:25;21.70;;;11.00;;
40198;SDS011;25906;43.536;26.068;2022-11-09T12:55:13;15.77;;;10.05;;
40198;SDS011;25906;43.536;26.068;2022-11-09T12:58:00;14.82;;;8.60;;
40198;SDS011;25906;43.536;26.068;2022-11-09T13:00:46;16.77;;;8.90;;
40198;SDS011;25906;43.536;26.068;2022-11-09T13:03:34;13.38;;;8.05;;
40198;SDS011;25906;43.536;26.068;2022-11-09T13:06:23;13.77;;;7.50;;
40198;SDS011;25906;43.536;26.068;2022-11-09T13:11:59;11.77;;;8.10;;
40198;SDS011;25906;43.536;26.068;2022-11-09T13:15:11;13.15;;;8.20;;
40198;SDS011;25906;43.536;26.068;2022-11-09T13:21:37;14.32;;;8.07;;
40198;SDS011;25906;43.536;26.068;2022-11-09T13:27:59;14.55;;;8.90;;
40198;SDS011;25906;43.536;26.068;2022-11-09T13:33:16;14.85;;;8.02;;
40198;SDS011;25906;43.536;26.068;2022-11-09T13:42:23;19.33;;;9.40;;
40198;SDS011;25906;43.536;26.068;2022-11-09T13:45:25;21.70;;;11.00;;
40198;SDS011;25906;43.536;26.068;2022-11-09T13:51:22;15.25;;;9.32;;
40198;SDS011;25906;43.536;26.068;2022-11-09T13:54:29;19.27;;;10.00;;
40198;SDS011;25906;43.536;26.068;2022-11-09T13:57:16;21.63;;;10.77;;
40198;SDS011;25906;43.536;26.068;2022-11-09T14:00:03;19.80;;;10.02;;
40198;SDS011;25906;43.536;26.068;2022-11-09T14:03:03;18.45;;;10.15;;
40198;SDS011;25906;43.536;26.068;2022-11-09T14:06:02;20.27;;;10.32;;
40198;SDS011;25906;43.536;26.068;2022-11-09T14:08:48;19.98;;;10.55;;
40198;SDS011;25906;43.536;26.068;2022-11-09T14:21:16;15.63;;;9.32;;
40198;SDS011;25906;43.536;26.068;2022-11-09T14:24:25;18.80;;;10.18;;
40198;SDS011;25906;43.536;26.068;2022-11-09T14:30:12;15.95;;;9.40;;
40198;SDS011;25906;43.536;26.068;2022-11-09T14:33:14;14.80;;;9.00;;
40198;SDS011;25906;43.536;26.068;2022-11-09T14:36:05;16.42;;;9.88;;
40198;SDS011;25906;43.536;26.068;2022-11-09T14:38:50;17.15;;;9.68;;
40198;SDS011;25906;43.536;26.068;2022-11-09T14:41:36;24.20;;;10.52;;
40198;SDS011;25906;43.536;26.068;2022-11-09T14:44:26;19.52;;;9.38;;
40198;SDS011;25906;43.536;26.068;2022-11-09T14:47:14;16.58;;;9.23;;
40198;SDS011;25906;43.536;26.068;2022-11-09T14:50:03;34.35;;;9.48;;
40198;SDS011;25906;43.536;26.068;2022-11-09T14:52:51;18.35;;;9.13;;
40198;SDS011;25906;43.536;26.068;2022-11-09T14:55:39;18.40;;;9.48;;
40198;SDS011;25906;43.536;26.068;2022-11-09T14:58:26;17.60;;;9.77;;
40198;SDS011;25906;43.536;26.068;2022-11-09T15:06:59;16.73;;;9.77;;
40198;SDS011;25906;43.536;26.068;2022-11-09T15:09:48;18.70;;;9.38;;
40198;SDS011;25906;43.536;26.068;2022-11-09T15:12:37;18.92;;;10.98;;
40198;SDS011;25906;43.536;26.068;2022-11-09T15:15:24;25.17;;;11.15;;
40198;SDS011;25906;43.536;26.068;2022-11-09T15:18:18;25.08;;;12.93;;
40198;SDS011;25906;43.536;26.068;2022-11-09T15:21:14;24.05;;;12.90;;
40198;SDS011;25906;43.536;26.068;2022-11-09T15:24:23;22.98;;;13.68;;
40198;SDS011;25906;43.536;26.068;2022-11-09T15:27:29;30.92;;;16.63;;
40198;SDS011;25906;43.536;26.068;2022-11-09T15:33:21;16.83;;;9.80;;
40198;SDS011;25906;43.536;26.068;2022-11-09T15:36:23;17.67;;;10.13;;
40198;SDS011;25906;43.536;26.068;2022-11-09T15:39:20;22.45;;;10.05;;
40198;SDS011;25906;43.536;26.068;2022-11-09T15:42:09;16.98;;;10.00;;
40198;SDS011;25906;43.536;26.068;2022-11-09T15:44:58;23.83;;;11.93;;
40198;SDS011;25906;43.536;26.068;2022-11-09T15:47:51;18.48;;;10.70;;
40198;SDS011;25906;43.536;26.068;2022-11-09T15:50:38;22.83;;;11.55;;
40198;SDS011;25906;43.536;26.068;2022-11-09T15:53:24;17.25;;;10.82;;
40198;SDS011;25906;43.536;26.068;2022-11-09T15:56:18;17.33;;;10.52;;
40198;SDS011;25906;43.536;26.068;2022-11-09T15:59:06;16.60;;;9.73;;
40198;SDS011;25906;43.536;26.068;2022-11-09T16:01:56;20.65;;;9.93;;
40198;SDS011;25906;43.536;26.068;2022-11-09T16:04:42;18.15;;;10.00;;
40198;SDS011;25906;43.536;26.068;2022-11-09T16:07:27;18.42;;;10.55;;
40198;SDS011;25906;43.536;26.068;2022-11-09T16:10:13;19.08;;;8.93;;
40198;SDS011;25906;43.536;26.068;2022-11-09T16:12:58;19.67;;;9.95;;
40198;SDS011;25906;43.536;26.068;2022-11-09T16:15:44;18.88;;;9.63;;
40198;SDS011;25906;43.536;26.068;2022-11-09T16:18:29;20.88;;;10.00;;
40198;SDS011;25906;43.536;26.068;2022-11-09T16:21:15;18.30;;;10.68;;
40198;SDS011;25906;43.536;26.068;2022-11-09T16:24:01;18.95;;;10.45;;
40198;SDS011;25906;43.536;26.068;2022-11-09T16:26:47;16.98;;;10.13;;
40198;SDS011;25906;43.536;26.068;2022-11-09T16:29:32;21.50;;;9.95;;
40198;SDS011;25906;43.536;26.068;2022-11-09T16:32:17;18.13;;;11.05;;
40198;SDS011;25906;43.536;26.068;2022-11-09T16:35:03;20.13;;;10.63;;
40198;SDS011;25906;43.536;26.068;2022-11-09T16:37:50;20.45;;;10.93;;
40198;SDS011;25906;43.536;26.068;2022-11-09T16:40:38;19.00;;;11.18;;
40198;SDS011;25906;43.536;26.068;2022-11-09T16:43:24;22.60;;;10.95;;
40198;SDS011;25906;43.536;26.068;2022-11-09T16:46:09;22.20;;;11.05;;
40198;SDS011;25906;43.536;26.068;2022-11-09T16:48:58;22.77;;;11.70;;
40198;SDS011;25906;43.536;26.068;2022-11-09T16:51:45;23.20;;;11.07;;
40198;SDS011;25906;43.536;26.068;2022-11-09T16:54:30;22.13;;;11.05;;
40198;SDS011;25906;43.536;26.068;2022-11-09T16:57:16;23.05;;;11.45;;
40198;SDS011;25906;43.536;26.068;2022-11-09T17:00:03;19.33;;;11.18;;
40198;SDS011;25906;43.536;26.068;2022-11-09T17:02:50;22.17;;;11.07;;
40198;SDS011;25906;43.536;26.068;2022-11-09T17:05:35;21.42;;;10.77;;
40198;SDS011;25906;43.536;26.068;2022-11-09T17:08:20;21.20;;;11.90;;
40198;SDS011;25906;43.536;26.068;2022-11-09T17:11:07;22.17;;;10.73;;
40198;SDS011;25906;43.536;26.068;2022-11-09T17:13:57;24.67;;;10.90;;
40198;SDS011;25906;43.536;26.068;2022-11-09T17:16:43;18.67;;;10.13;;
40198;SDS011;25906;43.536;26.068;2022-11-09T17:19:32;19.23;;;10.25;;
40198;SDS011;25906;43.536;26.068;2022-11-09T17:22:19;18.38;;;10.15;;
40198;SDS011;25906;43.536;26.068;2022-11-09T17:25:04;19.08;;;9.63;;
40198;SDS011;25906;43.536;26.068;2022-11-09T17:27:50;18.17;;;9.57;;
40198;SDS011;25906;43.536;26.068;2022-11-09T17:30:36;17.30;;;9.82;;
40198;SDS011;25906;43.536;26.068;2022-11-09T17:33:24;17.38;;;9.00;;
40198;SDS011;25906;43.536;26.068;2022-11-09T17:36:10;21.90;;;8.55;;
40198;SDS011;25906;43.536;26.068;2022-11-09T17:38:58;18.40;;;8.73;;
40198;SDS011;25906;43.536;26.068;2022-11-09T17:41:45;19.65;;;9.10;;
40198;SDS011;25906;43.536;26.068;2022-11-09T17:44:32;16.35;;;8.63;;
40198;SDS011;25906;43.536;26.068;2022-11-09T17:47:18;14.77;;;8.60;;
40198;SDS011;25906;43.536;26.068;2022-11-09T17:50:04;22.48;;;8.15;;
40198;SDS011;25906;43.536;26.068;2022-11-09T17:52:50;17.02;;;8.18;;
40198;SDS011;25906;43.536;26.068;2022-11-09T17:55:36;38.95;;;10.45;;
40198;SDS011;25906;43.536;26.068;2022-11-09T17:58:22;25.42;;;9.70;;
40198;SDS011;25906;43.536;26.068;2022-11-09T18:01:16;18.15;;;9.05;;
40198;SDS011;25906;43.536;26.068;2022-11-09T18:04:04;18.67;;;8.50;;
40198;SDS011;25906;43.536;26.068;2022-11-09T18:06:50;19.25;;;8.48;;
40198;SDS011;25906;43.536;26.068;2022-11-09T18:09:35;18.02;;;8.52;;
40198;SDS011;25906;43.536;26.068;2022-11-09T18:12:21;17.58;;;8.65;;
40198;SDS011;25906;43.536;26.068;2022-11-09T18:15:06;16.92;;;8.40;;
40198;SDS011;25906;43.536;26.068;2022-11-09T18:17:52;16.80;;;8.48;;
40198;SDS011;25906;43.536;26.068;2022-11-09T18:20:37;14.45;;;8.45;;
40198;SDS011;25906;43.536;26.068;2022-11-09T18:23:23;18.33;;;8.38;;
40198;SDS011;25906;43.536;26.068;2022-11-09T18:26:09;19.48;;;9.45;;
40198;SDS011;25906;43.536;26.068;2022-11-09T18:28:55;16.23;;;8.52;;
40198;SDS011;25906;43.536;26.068;2022-11-09T18:31:41;17.08;;;8.48;;
40198;SDS011;25906;43.536;26.068;2022-11-09T18:34:26;17.60;;;8.93;;
40198;SDS011;25906;43.536;26.068;2022-11-09T18:37:11;19.58;;;8.80;;
40198;SDS011;25906;43.536;26.068;2022-11-09T18:39:57;15.75;;;9.68;;